Worcester, MA

4:47 AM EDT on March 27, 2015 (GMT -0400)
Hanscom | | Change Station
CLOSE
Current Station
Airport
Location: Bedford,
Elevation: 135 ft
Nearby Weather Stations

Elev 135 ft 42.47 °N, 71.29 °W | Updated 51 minutes ago

Rain
Rain
39 °F
Feels Like 34 °F
N
7
Wind Variable Wind from NNW

Today
High -- | Low -- °F
--% Chance of Precip.
Yesterday
High -- | Low -- °F
Precip. -- in
6:38 AM 7:07 PM
Waxing Crescent, 50% visible
Pressure 29.70 in
Visibility 9.0 miles
Clouds Overcast 500 ft
Windchill 34 °F
Dew Point 38 °F
Humidity 96%
Rainfall 0.03 in
Snow Depth Not available.
UV 0 out of 12
Pollen 4.00 out of 12
Air Quality Not available.
Flu Activity Not available.
METAR KBED 270756Z AUTO 34006KT 9SM OVC005 04/03 A2965 RMK AO2 RAE0658 CIG 004V008 SLP055 P0000 T00390033 TSNO

More Conditions Fewer Conditions

Pressure 29.70 in
Visibility 9.0 miles
Clouds Overcast 500 ft
Windchill 34 °F
Dew Point 38 °F
Humidity 96%
Rainfall 0.03 in
Snow Depth Not available.
UV 0 out of 12
Pollen 4.00 out of 12
Air Quality Not available.
Flu Activity Not available.
METAR KBED 270756Z AUTO 34006KT 9SM OVC005 04/03 A2965 RMK AO2 RAE0658 CIG 004V008 SLP055 P0000 T00390033 TSNO

More Conditions Fewer Conditions

10-Day Weather Forecast

Almanac

Astronomy

Mar. 27, 2015 Rise Set
Actual Time
Civil Twilight
Nautical Twilight
Astronomical Twilight
Moon
Length of Visible Light
Length of Day
Tomorrow will be .
, % of the Moon is Illuminated

Today's Extremes

State Highs State Lows

Community

WunderPhotos

Upload Photos

1,808,705 photos uploaded!

WunderBlogs® & News

Nearby

Air Quality

  Air Quality AQ Index Pollutant
Not available.

Snow Depth

Station Depth Elevation

Earthquake Activity

City Distance Mag. Time & Date
Minimum magnitude displayed is 2.5.

Coastal Water Temperatures

Place Temperature

Stations

Nearby Weather Stations

Station Location Temp. Windchill Dew Point Humidity Wind Precip. Elev Updated Type